createdAt,value
2018-12-01T00:00:24.902Z,25.30
2018-12-01T00:02:53.183Z,24.72
2018-12-01T00:05:21.432Z,23.05
2018-12-01T00:07:50.168Z,25.85
2018-12-01T00:10:18.532Z,25.37
2018-12-01T00:12:46.767Z,25.72
2018-12-01T00:15:17.328Z,26.07
2018-12-01T00:17:45.571Z,24.90
2018-12-01T00:20:19.815Z,23.75
2018-12-01T00:22:48.218Z,24.27
2018-12-01T00:25:16.413Z,26.75
2018-12-01T00:27:44.713Z,25.32
2018-12-01T00:30:16.738Z,23.77
2018-12-01T00:32:46.329Z,24.63
2018-12-01T00:35:14.592Z,25.48
2018-12-01T00:37:42.868Z,25.45
2018-12-01T00:40:16.267Z,26.07
2018-12-01T00:42:44.410Z,25.40
2018-12-01T00:45:13.919Z,24.77
2018-12-01T00:47:57.237Z,24.85
2018-12-01T00:50:25.551Z,26.97
2018-12-01T00:52:54.076Z,28.12
2018-12-01T00:55:22.451Z,26.45
2018-12-01T00:57:50.713Z,24.02
2018-12-01T01:00:22.977Z,24.50
2018-12-01T01:02:57.064Z,26.90
2018-12-01T01:05:27.968Z,26.73
2018-12-01T01:07:57.326Z,28.47
2018-12-01T01:10:27.879Z,26.40
2018-12-01T01:12:56.010Z,28.60
2018-12-01T01:15:24.167Z,26.60
2018-12-01T01:17:52.178Z,24.70
2018-12-01T01:20:22.242Z,23.85
2018-12-01T01:22:50.695Z,23.15
2018-12-01T01:25:18.815Z,23.60
2018-12-01T01:27:46.899Z,20.70
2018-12-01T01:30:21.208Z,21.25
2018-12-01T01:32:50.958Z,23.05
2018-12-01T01:35:19.117Z,21.12
2018-12-01T01:37:47.228Z,19.95
2018-12-01T01:40:18.908Z,20.70
2018-12-01T01:42:47.037Z,20.80
2018-12-01T01:45:19.366Z,19.95
2018-12-01T01:47:47.442Z,20.68
2018-12-01T01:50:18.184Z,20.32
2018-12-01T01:52:46.291Z,19.40
2018-12-01T01:55:14.409Z,22.85
2018-12-01T01:57:42.702Z,18.65
2018-12-01T02:00:20.123Z,18.52
2018-12-01T02:02:50.615Z,17.48
2018-12-01T02:05:21.342Z,17.12
2018-12-01T02:07:49.625Z,18.10
2018-12-01T02:10:18.817Z,17.12
2018-12-01T02:12:46.898Z,16.87
2018-12-01T02:15:15.031Z,15.18
2018-12-01T02:17:43.155Z,16.67
2018-12-01T02:20:13.727Z,17.48
2018-12-01T02:22:41.898Z,17.65
2018-12-01T02:25:14.302Z,18.20
2018-12-01T02:27:42.459Z,15.65
2018-12-01T02:30:12.670Z,16.07
2018-12-01T02:32:40.818Z,15.68
2018-12-01T02:35:11.708Z,16.48
2018-12-01T02:37:39.832Z,16.55
2018-12-01T02:40:11.056Z,15.03
2018-12-01T02:42:39.490Z,17.45
2018-12-01T02:45:24.713Z,15.93
2018-12-01T02:47:52.822Z,16.50
2018-12-01T02:50:23.545Z,18.60
2018-12-01T02:52:53.109Z,17.15
2018-12-01T02:55:21.181Z,15.90
2018-12-01T02:57:49.270Z,15.53
2018-12-01T03:00:17.319Z,17.15
2018-12-01T03:02:45.364Z,13.48
2018-12-01T03:05:13.497Z,15.78
2018-12-01T03:07:41.579Z,15.78
2018-12-01T03:10:14.116Z,14.53
2018-12-01T03:12:42.241Z,16.52
2018-12-01T03:15:13.863Z,14.78
2018-12-01T03:17:42.004Z,15.85
2018-12-01T03:20:13.883Z,14.50
2018-12-01T03:22:41.915Z,14.87
2018-12-01T03:25:23.798Z,15.50
2018-12-01T03:27:53.910Z,16.97
2018-12-01T03:30:23.365Z,14.25
2018-12-01T03:32:53.228Z,14.73
2018-12-01T03:35:22.650Z,14.73
2018-12-01T03:37:51.146Z,14.25
2018-12-01T03:40:20.909Z,13.40
2018-12-01T03:42:50.333Z,14.85
2018-12-01T03:45:21.910Z,14.03
2018-12-01T03:47:49.984Z,14.75
2018-12-01T03:50:19.626Z,14.47
2018-12-01T03:52:48.300Z,15.08
2018-12-01T03:55:31.582Z,14.60
2018-12-01T03:58:00.193Z,15.18
2018-12-01T04:00:29.152Z,12.18
2018-12-01T04:02:58.798Z,15.50
2018-12-01T04:05:27.009Z,15.70
2018-12-01T04:07:55.232Z,14.25
2018-12-01T04:10:23.381Z,17.25
2018-12-01T04:12:51.674Z,14.05
2018-12-01T04:15:19.797Z,16.73
2018-12-01T04:17:48.004Z,14.58
2018-12-01T04:20:16.132Z,16.02
2018-12-01T04:22:44.256Z,16.70
2018-12-01T04:25:12.356Z,15.65
2018-12-01T04:27:40.420Z,17.15
2018-12-01T04:30:12.498Z,16.95
2018-12-01T04:32:40.703Z,17.40
2018-12-01T04:35:09.912Z,17.00
2018-12-01T04:37:37.971Z,14.85
2018-12-01T04:40:07.896Z,15.80
2018-12-01T04:42:36.008Z,16.90
2018-12-01T04:45:04.704Z,17.42
2018-12-01T04:47:32.796Z,16.20
2018-12-01T04:50:00.991Z,19.12
2018-12-01T04:52:29.090Z,17.95
2018-12-01T04:54:57.193Z,19.02
2018-12-01T04:57:25.452Z,16.48
2018-12-01T04:59:53.560Z,19.32
2018-12-01T05:02:21.655Z,18.12
2018-12-01T05:04:49.803Z,17.70
2018-12-01T05:07:17.918Z,17.62
2018-12-01T05:09:45.969Z,16.70
2018-12-01T05:12:14.120Z,17.05
2018-12-01T05:14:42.192Z,17.40
2018-12-01T05:17:10.395Z,17.60
2018-12-01T05:19:38.508Z,15.50
2018-12-01T05:22:06.676Z,18.77
2018-12-01T05:24:34.698Z,18.52
2018-12-01T05:27:02.830Z,19.10
2018-12-01T05:29:31.003Z,19.62
2018-12-01T05:31:59.083Z,17.92
2018-12-01T05:34:27.150Z,20.02
2018-12-01T05:36:55.222Z,18.87
2018-12-01T05:39:23.289Z,19.45
2018-12-01T05:41:51.410Z,18.50
2018-12-01T05:44:19.693Z,18.77
2018-12-01T05:46:47.774Z,18.27
2018-12-01T05:49:15.905Z,20.75
2018-12-01T05:51:44.014Z,20.05
2018-12-01T05:54:12.119Z,20.50
2018-12-01T05:56:40.287Z,18.67
2018-12-01T05:59:08.374Z,18.55
2018-12-01T06:01:36.467Z,19.00
2018-12-01T06:04:05.144Z,20.43
2018-12-01T06:06:33.274Z,19.60
2018-12-01T06:09:01.347Z,18.82
2018-12-01T06:11:29.426Z,20.97
2018-12-01T06:13:57.536Z,18.60
2018-12-01T06:16:25.605Z,21.77
2018-12-01T06:18:53.690Z,18.82
2018-12-01T06:21:21.733Z,20.65
2018-12-01T06:23:49.860Z,20.80
2018-12-01T06:26:17.992Z,19.65
2018-12-01T06:28:46.101Z,18.65
2018-12-01T06:31:14.262Z,18.15
2018-12-01T06:33:42.392Z,17.82
2018-12-01T06:36:10.460Z,18.45
2018-12-01T06:38:38.530Z,19.90
2018-12-01T06:41:06.667Z,19.82
2018-12-01T06:43:34.740Z,20.43
2018-12-01T06:46:03.038Z,19.82
2018-12-01T06:48:31.198Z,21.20
2018-12-01T06:50:59.339Z,22.25
2018-12-01T06:53:27.414Z,23.85
2018-12-01T06:55:55.725Z,24.00
2018-12-01T06:58:23.791Z,23.42
2018-12-01T07:00:52.015Z,26.50
2018-12-01T07:03:20.367Z,25.85
2018-12-01T07:05:48.528Z,22.55
2018-12-01T07:08:16.767Z,25.90
2018-12-01T07:10:45.156Z,23.98
2018-12-01T07:13:13.441Z,25.52
2018-12-01T07:15:41.683Z,22.35
2018-12-01T07:18:26.802Z,24.35
2018-12-01T07:20:56.176Z,23.98
2018-12-01T07:23:24.290Z,23.77
2018-12-01T07:25:53.138Z,25.12
2018-12-01T07:28:21.998Z,25.02
2018-12-01T07:30:50.180Z,21.90
2018-12-01T07:33:18.660Z,26.25
2018-12-01T07:35:46.815Z,24.52
2018-12-01T07:38:15.027Z,24.95
2018-12-01T07:40:43.311Z,25.45
2018-12-01T07:43:11.644Z,24.82
2018-12-01T07:45:39.729Z,25.15
2018-12-01T07:48:07.811Z,26.42
2018-12-01T07:50:35.955Z,23.80
2018-12-01T07:53:04.265Z,25.82
2018-12-01T07:55:32.376Z,27.10
2018-12-01T07:58:00.529Z,26.85
2018-12-01T08:00:28.713Z,27.05
2018-12-01T08:02:57.083Z,26.77
2018-12-01T08:05:25.251Z,26.23
2018-12-01T08:07:53.523Z,26.30
2018-12-01T08:10:21.713Z,26.00
2018-12-01T08:12:49.987Z,24.20
2018-12-01T08:15:18.465Z,25.48
2018-12-01T08:17:47.520Z,22.27
2018-12-01T08:20:19.547Z,25.60
2018-12-01T08:22:47.626Z,24.18
2018-12-01T08:25:18.381Z,25.50
2018-12-01T08:27:48.477Z,24.32
2018-12-01T08:30:25.354Z,25.30
2018-12-01T08:32:53.617Z,24.15
2018-12-01T08:35:22.196Z,23.87
2018-12-01T08:37:50.751Z,23.00
2018-12-01T08:40:21.007Z,24.27
2018-12-01T08:42:49.143Z,21.82
2018-12-01T08:45:17.516Z,22.95
2018-12-01T08:47:45.659Z,24.80
2018-12-01T08:50:16.473Z,21.73
2018-12-01T08:52:45.139Z,23.30
2018-12-01T08:55:21.480Z,20.65
2018-12-01T08:57:50.837Z,20.32
2018-12-01T09:00:21.801Z,20.75
2018-12-01T09:02:57.281Z,21.82
2018-12-01T09:05:25.512Z,20.92
2018-12-01T09:07:53.775Z,20.52
2018-12-01T09:10:22.186Z,20.65
2018-12-01T09:12:50.438Z,21.45
2018-12-01T09:15:18.573Z,20.10
2018-12-01T09:17:46.727Z,18.25
2018-12-01T09:20:15.032Z,18.52
2018-12-01T09:22:45.847Z,20.00
2018-12-01T09:25:17.437Z,19.02
2018-12-01T09:27:46.541Z,20.88
2018-12-01T09:30:17.919Z,19.42
2018-12-01T09:32:48.212Z,17.85
2018-12-01T09:38:07.227Z,15.40
2018-12-01T09:40:36.431Z,15.95
2018-12-01T09:43:05.360Z,16.65
2018-12-01T09:45:33.716Z,16.67
2018-12-01T09:48:01.995Z,16.75
2018-12-01T09:50:30.344Z,15.78
2018-12-01T09:52:58.608Z,15.85
2018-12-01T09:55:29.762Z,14.68
2018-12-01T09:57:59.040Z,14.85
2018-12-01T10:00:30.817Z,13.08
2018-12-01T10:03:00.731Z,13.15
2018-12-01T10:05:29.172Z,13.85
2018-12-01T10:07:57.585Z,13.68
2018-12-01T10:10:25.950Z,13.53
2018-12-01T10:12:55.966Z,13.32
2018-12-01T10:15:26.943Z,12.95
2018-12-01T10:17:55.257Z,13.20
2018-12-01T10:20:28.896Z,13.35
2018-12-01T10:22:57.962Z,12.00
2018-12-01T10:25:26.249Z,14.30
2018-12-01T10:27:54.477Z,13.55
2018-12-01T10:30:22.842Z,13.35
2018-12-01T10:32:52.023Z,12.45
2018-12-01T10:35:22.074Z,12.47
2018-12-01T10:38:14.411Z,12.10
2018-12-01T10:40:42.725Z,14.60
2018-12-01T10:43:10.982Z,13.05
2018-12-01T10:45:39.186Z,12.90
2018-12-01T10:48:08.803Z,12.33
2018-12-01T10:50:37.741Z,11.40
2018-12-01T10:53:06.754Z,11.65
2018-12-01T10:55:35.447Z,14.07
2018-12-01T10:58:12.019Z,11.28
2018-12-01T11:00:47.452Z,10.80
2018-12-01T11:03:21.319Z,11.40
2018-12-01T11:05:49.705Z,11.12
2018-12-01T11:08:18.196Z,11.30
2018-12-01T11:10:47.219Z,11.55
2018-12-01T11:13:15.674Z,10.98
2018-12-01T11:15:43.881Z,11.80
2018-12-01T11:18:12.125Z,11.50
2018-12-01T11:20:40.398Z,11.85
2018-12-01T11:23:08.785Z,10.80
2018-12-01T11:25:37.691Z,10.50
2018-12-01T11:28:06.072Z,12.28
2018-12-01T11:30:35.665Z,12.07
2018-12-01T11:33:03.930Z,12.40
2018-12-01T11:35:32.304Z,11.83
2018-12-01T11:38:00.535Z,11.45
2018-12-01T11:40:28.792Z,11.25
2018-12-01T11:42:57.136Z,10.93
2018-12-01T11:45:25.303Z,12.07
2018-12-01T11:47:53.853Z,10.72
2018-12-01T11:50:21.992Z,10.32
2018-12-01T11:52:50.681Z,10.85
2018-12-01T11:55:21.632Z,9.45
2018-12-01T11:57:50.509Z,11.45
2018-12-01T12:00:20.712Z,10.45
2018-12-01T12:02:49.079Z,9.38
2018-12-01T12:05:17.299Z,9.08
2018-12-01T12:08:02.714Z,9.68
2018-12-01T12:10:31.836Z,9.98
2018-12-01T12:13:00.055Z,11.18
2018-12-01T12:15:28.318Z,10.68
2018-12-01T12:18:01.869Z,10.13
2018-12-01T12:20:31.046Z,9.80
2018-12-01T12:22:59.385Z,8.67
2018-12-01T12:25:27.621Z,7.10
2018-12-01T12:27:55.837Z,8.95
2018-12-01T12:30:25.955Z,8.05
2018-12-01T12:32:52.493Z,8.05
2018-12-01T12:35:20.724Z,7.67
2018-12-01T12:37:49.032Z,8.10
2018-12-01T12:40:20.149Z,9.05
2018-12-01T12:42:48.447Z,9.10
2018-12-01T12:45:16.664Z,8.78
2018-12-01T12:47:44.932Z,9.10
2018-12-01T12:50:16.255Z,10.18
2018-12-01T12:52:46.426Z,10.20
2018-12-01T12:55:18.118Z,10.95
2018-12-01T12:57:46.339Z,10.20
2018-12-01T13:00:20.754Z,12.45
2018-12-01T13:02:52.886Z,11.38
2018-12-01T13:05:24.010Z,12.15
2018-12-01T13:07:52.203Z,10.50
2018-12-01T13:10:22.323Z,11.50
2018-12-01T13:12:51.794Z,10.85
2018-12-01T13:15:18.901Z,9.83
2018-12-01T13:17:47.284Z,11.35
2018-12-01T13:20:19.521Z,11.48
2018-12-01T13:22:50.729Z,11.63
2018-12-01T13:25:19.087Z,10.48
2018-12-01T13:28:28.167Z,11.40
2018-12-01T13:31:02.968Z,10.25
2018-12-01T13:33:31.185Z,9.18
2018-12-01T13:35:59.471Z,10.20
2018-12-01T13:38:27.873Z,9.35
2018-12-01T13:40:56.360Z,9.35
2018-12-01T13:43:24.573Z,8.30
2018-12-01T13:45:52.937Z,9.15
2018-12-01T13:48:21.305Z,8.55
2018-12-01T13:50:49.574Z,8.23
2018-12-01T13:53:17.735Z,8.05
2018-12-01T13:55:45.986Z,9.33
2018-12-01T13:58:14.218Z,8.90
2018-12-01T14:00:42.491Z,8.58
2018-12-01T14:03:10.829Z,7.97
2018-12-01T14:05:40.558Z,8.38
2018-12-01T14:08:08.760Z,8.93
2018-12-01T14:10:40.572Z,9.75
2018-12-01T14:13:11.247Z,9.13
2018-12-01T14:15:39.623Z,7.85
2018-12-01T14:18:07.969Z,8.53
2018-12-01T14:20:36.216Z,8.10
2018-12-01T14:23:04.513Z,7.20
2018-12-01T14:25:33.093Z,7.35
2018-12-01T14:28:03.591Z,7.55
2018-12-01T14:30:31.868Z,8.03
2018-12-01T14:33:00.119Z,6.83
2018-12-01T14:35:32.242Z,6.50
2018-12-01T14:38:08.397Z,6.85
2018-12-01T14:40:37.921Z,7.20
2018-12-01T14:43:06.214Z,7.30
2018-12-01T14:45:34.418Z,5.60
2018-12-01T14:48:02.603Z,6.83
2018-12-01T14:50:30.831Z,6.75
2018-12-01T14:52:59.069Z,6.92
2018-12-01T14:55:27.213Z,7.62
2018-12-01T14:57:55.424Z,6.60
2018-12-01T15:00:25.091Z,6.58
2018-12-01T15:02:54.764Z,7.03
2018-12-01T15:05:23.787Z,6.95
2018-12-01T15:07:52.176Z,7.47
2018-12-01T15:10:24.885Z,6.25
2018-12-01T15:12:53.235Z,5.67
2018-12-01T15:15:24.259Z,5.80
2018-12-01T15:17:52.549Z,6.30
2018-12-01T15:20:22.359Z,6.05
2018-12-01T15:22:52.210Z,7.08
2018-12-01T15:25:23.813Z,8.30
2018-12-01T15:27:52.151Z,8.18
2018-12-01T15:30:28.440Z,6.97
2018-12-01T15:33:02.845Z,7.47
2018-12-01T15:35:31.132Z,6.17
2018-12-01T15:37:59.526Z,6.22
2018-12-01T15:40:27.876Z,6.78
2018-12-01T15:42:56.002Z,5.95
2018-12-01T15:45:24.618Z,6.25
2018-12-01T15:47:54.118Z,6.05
2018-12-01T15:50:21.911Z,5.90
2018-12-01T15:52:56.691Z,6.10
2018-12-01T15:55:24.931Z,6.95
2018-12-01T15:57:53.761Z,7.00
2018-12-01T16:00:24.060Z,7.17
2018-12-01T16:02:52.331Z,7.50
2018-12-01T16:05:21.937Z,6.53
2018-12-01T16:07:55.011Z,6.80
2018-12-01T16:10:23.986Z,6.20
2018-12-01T16:13:12.347Z,6.35
2018-12-01T16:15:45.348Z,7.00
2018-12-01T16:18:13.589Z,6.47
2018-12-01T16:20:41.806Z,6.83
2018-12-01T16:23:09.916Z,6.90
2018-12-01T16:25:38.189Z,6.75
2018-12-01T16:28:07.689Z,6.10
2018-12-01T16:30:45.301Z,6.65
2018-12-01T16:33:20.583Z,6.92
2018-12-01T16:35:50.292Z,6.37
2018-12-01T16:38:25.911Z,5.95
2018-12-01T16:41:02.568Z,7.72
2018-12-01T16:43:33.954Z,6.20
2018-12-01T16:46:02.429Z,6.80
2018-12-01T16:48:30.715Z,6.03
2018-12-01T16:50:58.940Z,6.90
2018-12-01T16:53:27.387Z,6.97
2018-12-01T16:55:55.905Z,6.60
2018-12-01T16:58:24.178Z,8.30
2018-12-01T17:00:52.390Z,6.58
2018-12-01T17:03:20.601Z,7.42
2018-12-01T17:05:53.704Z,7.28
2018-12-01T17:08:22.021Z,8.08
2018-12-01T17:10:50.290Z,7.53
2018-12-01T17:13:18.561Z,6.23
2018-12-01T17:15:46.845Z,6.95
2018-12-01T17:18:15.078Z,6.22
2018-12-01T17:20:43.405Z,5.27
2018-12-01T17:23:14.228Z,5.37
2018-12-01T17:25:42.529Z,6.20
2018-12-01T17:28:17.357Z,6.93
2018-12-01T17:30:45.738Z,5.60
2018-12-01T17:33:13.931Z,5.20
2018-12-01T17:35:42.126Z,6.05
2018-12-01T17:38:13.265Z,6.35
2018-12-01T17:40:50.918Z,5.67
2018-12-01T17:43:36.975Z,6.47
2018-12-01T17:46:05.498Z,5.78
2018-12-01T17:48:33.705Z,6.10
2018-12-01T17:51:01.902Z,6.40
2018-12-01T17:53:30.505Z,6.50
2018-12-01T17:55:58.907Z,6.08
2018-12-01T17:58:27.510Z,5.80
2018-12-01T18:00:55.856Z,5.40
2018-12-01T18:03:24.146Z,5.50
2018-12-01T18:05:52.552Z,6.12
2018-12-01T18:08:22.521Z,5.75
2018-12-01T18:10:53.084Z,6.12
2018-12-01T18:13:22.074Z,5.95
2018-12-01T18:15:50.367Z,6.72
2018-12-01T18:18:18.595Z,4.75
2018-12-01T18:20:47.123Z,6.28
2018-12-01T18:23:18.588Z,6.53
2018-12-01T18:25:50.197Z,6.95
2018-12-01T18:28:24.779Z,6.33
2018-12-01T18:30:53.348Z,6.05
2018-12-01T18:33:41.357Z,5.47
2018-12-01T18:36:12.351Z,6.22
2018-12-01T18:38:42.339Z,5.17
2018-12-01T18:41:10.908Z,4.85
2018-12-01T18:43:39.221Z,4.70
2018-12-01T18:46:11.057Z,5.80
2018-12-01T18:48:39.286Z,4.83
2018-12-01T18:51:07.661Z,4.67
2018-12-01T18:53:36.245Z,6.03
2018-12-01T18:56:05.395Z,4.62
2018-12-01T18:58:34.036Z,5.17
2018-12-01T19:01:02.326Z,4.92
2018-12-01T19:03:33.713Z,5.53
2018-12-01T19:06:01.986Z,4.62
2018-12-01T19:08:30.258Z,4.83
2018-12-01T19:10:58.663Z,4.95
2018-12-01T19:13:26.939Z,5.62
2018-12-01T19:15:55.144Z,4.53
2018-12-01T19:18:23.438Z,4.53
2018-12-01T19:20:51.627Z,4.75
2018-12-01T19:23:20.018Z,4.08
2018-12-01T19:25:50.450Z,5.83
2018-12-01T19:28:18.687Z,4.65
2018-12-01T19:30:47.039Z,4.60
2018-12-01T19:33:17.690Z,4.67
2018-12-01T19:35:47.504Z,4.60
2018-12-01T19:38:18.930Z,5.20
2018-12-01T19:40:47.457Z,4.62
2018-12-01T19:43:16.153Z,4.97
2018-12-01T19:45:44.428Z,4.80
2018-12-01T19:48:12.797Z,4.62
2018-12-01T19:50:41.606Z,4.65
2018-12-01T19:53:15.774Z,5.28
2018-12-01T19:55:46.194Z,5.22
2018-12-01T19:58:18.076Z,4.63
2018-12-01T20:00:50.959Z,6.05
2018-12-01T20:03:22.143Z,5.40
2018-12-01T20:05:50.857Z,5.12
2018-12-01T20:08:20.684Z,5.50
2018-12-01T20:10:55.874Z,5.85
2018-12-01T20:13:56.066Z,5.00
2018-12-01T20:16:31.679Z,5.97
2018-12-01T20:19:00.331Z,5.22
2018-12-01T20:21:28.873Z,5.33
2018-12-01T20:23:57.858Z,4.80
2018-12-01T20:26:26.348Z,5.20
2018-12-01T20:28:55.125Z,5.47
2018-12-01T20:31:23.579Z,5.80
2018-12-01T20:33:57.974Z,5.47
2018-12-01T20:36:31.733Z,5.42
2018-12-01T20:39:17.356Z,5.65
2018-12-01T20:41:45.643Z,6.10
2018-12-01T20:44:14.346Z,5.45
2018-12-01T20:46:44.597Z,5.78
2018-12-01T20:49:13.220Z,5.10
2018-12-01T20:51:42.084Z,5.20
2018-12-01T20:54:24.386Z,5.17
2018-12-01T20:56:57.846Z,5.62
2018-12-01T20:59:26.899Z,5.08
2018-12-01T21:01:55.576Z,5.05
2018-12-01T21:04:23.903Z,4.37
2018-12-01T21:06:52.458Z,4.90
2018-12-01T21:09:20.894Z,4.90
2018-12-01T21:11:49.248Z,4.40
2018-12-01T21:17:05.611Z,5.10
2018-12-01T21:19:33.878Z,4.03
2018-12-01T21:22:02.287Z,4.90
2018-12-01T21:24:31.098Z,4.87
2018-12-01T21:26:59.301Z,5.33
2018-12-01T21:29:27.578Z,5.00
2018-12-01T21:31:56.924Z,5.10
2018-12-01T21:34:25.185Z,4.47
2018-12-01T21:36:53.739Z,5.35
2018-12-01T21:39:22.414Z,4.35
2018-12-01T21:41:50.714Z,4.15
2018-12-01T21:44:19.513Z,3.50
2018-12-01T21:46:47.786Z,3.60
2018-12-01T21:49:16.146Z,4.10
2018-12-01T21:51:44.444Z,3.00
2018-12-01T21:54:12.870Z,2.90
2018-12-01T21:56:41.171Z,2.62
2018-12-01T21:59:09.790Z,2.77
2018-12-01T22:01:38.439Z,3.08
2018-12-01T22:04:08.845Z,2.83
2018-12-01T22:06:37.114Z,2.50
2018-12-01T22:09:08.008Z,2.65
2018-12-01T22:11:36.500Z,2.50
2018-12-01T22:14:05.661Z,3.12
2018-12-01T22:16:33.914Z,2.60
2018-12-01T22:19:02.349Z,2.30
2018-12-01T22:21:30.626Z,2.37
2018-12-01T22:23:58.923Z,2.60
2018-12-01T22:26:27.326Z,2.62
2018-12-01T22:28:55.610Z,2.95
2018-12-01T22:31:24.204Z,3.25
2018-12-01T22:33:52.454Z,2.80
2018-12-01T22:36:20.862Z,2.80
2018-12-01T22:38:49.189Z,2.90
2018-12-01T22:41:17.620Z,3.02
2018-12-01T22:43:45.957Z,2.72
2018-12-01T22:46:14.300Z,2.98
2018-12-01T22:48:42.637Z,2.90
2018-12-01T22:53:58.265Z,2.83
2018-12-01T22:56:28.944Z,2.90
2018-12-01T22:58:55.080Z,2.50
2018-12-01T23:01:23.538Z,2.87
2018-12-01T23:03:52.591Z,2.65
2018-12-01T23:06:20.972Z,2.67
2018-12-01T23:08:49.501Z,3.00
2018-12-01T23:11:17.947Z,3.25
2018-12-01T23:13:47.669Z,3.62
2018-12-01T23:16:16.202Z,3.25
2018-12-01T23:18:44.658Z,4.08
2018-12-01T23:21:12.924Z,2.75
2018-12-01T23:23:41.231Z,2.60
2018-12-01T23:26:09.411Z,2.95
2018-12-01T23:28:38.064Z,3.50
2018-12-01T23:31:06.314Z,3.40
2018-12-01T23:33:34.752Z,3.00
2018-12-01T23:36:03.120Z,3.37
2018-12-01T23:38:31.487Z,3.65
2018-12-01T23:41:00.081Z,3.42
2018-12-01T23:43:28.592Z,3.75
2018-12-01T23:45:57.254Z,3.25
2018-12-01T23:48:25.897Z,3.90
2018-12-01T23:50:56.241Z,3.15
2018-12-01T23:53:25.624Z,2.70
2018-12-01T23:55:54.362Z,2.90
2018-12-01T23:58:22.514Z,2.80
